sensor_id;sensor_type;location;lat;lon;timestamp;P1;durP1;ratioP1;P2;durP2;ratioP2
20101;SDS011;10210;52.284;9.892;2022-09-09T00:01:59;4.07;;;1.37;;
20101;SDS011;10210;52.284;9.892;2022-09-09T00:04:37;3.27;;;1.20;;
20101;SDS011;10210;52.284;9.892;2022-09-09T00:19:04;4.57;;;1.33;;
20101;SDS011;10210;52.284;9.892;2022-09-09T00:22:08;1.83;;;1.20;;
20101;SDS011;10210;52.284;9.892;2022-09-09T00:24:58;3.70;;;1.20;;
20101;SDS011;10210;52.284;9.892;2022-09-09T00:27:47;2.40;;;1.00;;
20101;SDS011;10210;52.284;9.892;2022-09-09T00:30:16;4.07;;;1.30;;
20101;SDS011;10210;52.284;9.892;2022-09-09T00:32:50;2.67;;;1.20;;
20101;SDS011;10210;52.284;9.892;2022-09-09T00:35:36;3.20;;;1.10;;
20101;SDS011;10210;52.284;9.892;2022-09-09T00:38:16;2.50;;;1.10;;
20101;SDS011;10210;52.284;9.892;2022-09-09T00:40:58;2.23;;;1.10;;
20101;SDS011;10210;52.284;9.892;2022-09-09T00:43:46;3.70;;;1.40;;
20101;SDS011;10210;52.284;9.892;2022-09-09T00:55:39;5.17;;;1.10;;
20101;SDS011;10210;52.284;9.892;2022-09-09T00:58:38;3.40;;;1.10;;
20101;SDS011;10210;52.284;9.892;2022-09-09T01:01:04;2.83;;;1.10;;
20101;SDS011;10210;52.284;9.892;2022-09-09T01:03:50;2.83;;;1.07;;
20101;SDS011;10210;52.284;9.892;2022-09-09T01:06:27;2.73;;;1.20;;
20101;SDS011;10210;52.284;9.892;2022-09-09T01:09:16;4.37;;;1.00;;
20101;SDS011;10210;52.284;9.892;2022-09-09T01:14:40;5.13;;;1.77;;
20101;SDS011;10210;52.284;9.892;2022-09-09T01:23:00;6.20;;;1.47;;
20101;SDS011;10210;52.284;9.892;2022-09-09T01:28:50;3.43;;;1.40;;
20101;SDS011;10210;52.284;9.892;2022-09-09T01:31:21;6.43;;;1.40;;
20101;SDS011;10210;52.284;9.892;2022-09-09T01:34:09;3.43;;;1.30;;
20101;SDS011;10210;52.284;9.892;2022-09-09T01:36:44;4.33;;;1.37;;
20101;SDS011;10210;52.284;9.892;2022-09-09T01:39:25;4.53;;;1.47;;
20101;SDS011;10210;52.284;9.892;2022-09-09T01:41:52;2.60;;;1.47;;
20101;SDS011;10210;52.284;9.892;2022-09-09T01:44:20;6.80;;;1.40;;
20101;SDS011;10210;52.284;9.892;2022-09-09T01:46:47;3.40;;;1.20;;
20101;SDS011;10210;52.284;9.892;2022-09-09T01:49:13;4.20;;;1.40;;
20101;SDS011;10210;52.284;9.892;2022-09-09T01:51:41;5.73;;;1.53;;
20101;SDS011;10210;52.284;9.892;2022-09-09T01:54:10;4.50;;;1.20;;
20101;SDS011;10210;52.284;9.892;2022-09-09T01:56:54;4.90;;;1.57;;
20101;SDS011;10210;52.284;9.892;2022-09-09T01:59:45;3.43;;;1.40;;
20101;SDS011;10210;52.284;9.892;2022-09-09T02:02:25;6.47;;;1.63;;
20101;SDS011;10210;52.284;9.892;2022-09-09T02:05:27;6.13;;;1.23;;
20101;SDS011;10210;52.284;9.892;2022-09-09T02:08:36;3.27;;;1.40;;
20101;SDS011;10210;52.284;9.892;2022-09-09T02:11:13;2.70;;;1.30;;
20101;SDS011;10210;52.284;9.892;2022-09-09T02:13:43;7.47;;;1.70;;
20101;SDS011;10210;52.284;9.892;2022-09-09T02:16:19;5.53;;;1.70;;
20101;SDS011;10210;52.284;9.892;2022-09-09T02:21:50;3.87;;;1.40;;
20101;SDS011;10210;52.284;9.892;2022-09-09T02:24:21;3.77;;;1.40;;
20101;SDS011;10210;52.284;9.892;2022-09-09T02:26:49;6.40;;;1.70;;
20101;SDS011;10210;52.284;9.892;2022-09-09T02:29:31;6.30;;;1.67;;
20101;SDS011;10210;52.284;9.892;2022-09-09T02:32:07;5.50;;;1.60;;
20101;SDS011;10210;52.284;9.892;2022-09-09T02:35:02;7.67;;;2.00;;
20101;SDS011;10210;52.284;9.892;2022-09-09T02:37:36;4.90;;;1.70;;
20101;SDS011;10210;52.284;9.892;2022-09-09T02:40:05;5.43;;;1.60;;
20101;SDS011;10210;52.284;9.892;2022-09-09T02:42:39;5.77;;;1.60;;
20101;SDS011;10210;52.284;9.892;2022-09-09T02:45:10;7.00;;;1.50;;
20101;SDS011;10210;52.284;9.892;2022-09-09T02:47:56;7.30;;;1.90;;
20101;SDS011;10210;52.284;9.892;2022-09-09T02:50:35;5.57;;;1.40;;
20101;SDS011;10210;52.284;9.892;2022-09-09T02:53:24;8.27;;;1.70;;
20101;SDS011;10210;52.284;9.892;2022-09-09T02:56:17;7.33;;;1.67;;
20101;SDS011;10210;52.284;9.892;2022-09-09T02:58:48;7.37;;;1.80;;
20101;SDS011;10210;52.284;9.892;2022-09-09T03:01:16;6.13;;;1.60;;
20101;SDS011;10210;52.284;9.892;2022-09-09T03:03:43;6.37;;;1.70;;
20101;SDS011;10210;52.284;9.892;2022-09-09T03:06:09;5.73;;;1.70;;
20101;SDS011;10210;52.284;9.892;2022-09-09T03:08:36;4.47;;;1.60;;
20101;SDS011;10210;52.284;9.892;2022-09-09T03:11:02;5.73;;;1.70;;
20101;SDS011;10210;52.284;9.892;2022-09-09T03:13:29;6.13;;;1.70;;
20101;SDS011;10210;52.284;9.892;2022-09-09T03:15:54;5.13;;;1.90;;
20101;SDS011;10210;52.284;9.892;2022-09-09T03:18:20;3.97;;;1.50;;
20101;SDS011;10210;52.284;9.892;2022-09-09T03:20:46;3.77;;;1.57;;
20101;SDS011;10210;52.284;9.892;2022-09-09T03:23:15;6.27;;;1.93;;
20101;SDS011;10210;52.284;9.892;2022-09-09T03:25:48;6.20;;;1.80;;
20101;SDS011;10210;52.284;9.892;2022-09-09T03:28:15;5.57;;;1.73;;
20101;SDS011;10210;52.284;9.892;2022-09-09T03:30:41;4.50;;;1.63;;
20101;SDS011;10210;52.284;9.892;2022-09-09T03:33:06;4.40;;;1.57;;
20101;SDS011;10210;52.284;9.892;2022-09-09T03:35:32;3.20;;;1.50;;
20101;SDS011;10210;52.284;9.892;2022-09-09T03:37:58;3.47;;;1.27;;
20101;SDS011;10210;52.284;9.892;2022-09-09T03:40:25;7.17;;;2.17;;
20101;SDS011;10210;52.284;9.892;2022-09-09T03:42:51;5.83;;;1.70;;
20101;SDS011;10210;52.284;9.892;2022-09-09T03:45:17;4.97;;;1.50;;
20101;SDS011;10210;52.284;9.892;2022-09-09T03:47:42;3.70;;;1.37;;
20101;SDS011;10210;52.284;9.892;2022-09-09T03:50:08;4.60;;;1.40;;
20101;SDS011;10210;52.284;9.892;2022-09-09T03:52:39;6.03;;;2.10;;
20101;SDS011;10210;52.284;9.892;2022-09-09T03:55:07;3.40;;;1.27;;
20101;SDS011;10210;52.284;9.892;2022-09-09T03:57:33;3.90;;;1.40;;
20101;SDS011;10210;52.284;9.892;2022-09-09T04:00:04;5.53;;;1.40;;
20101;SDS011;10210;52.284;9.892;2022-09-09T04:02:32;3.27;;;1.40;;
20101;SDS011;10210;52.284;9.892;2022-09-09T04:04:58;2.60;;;1.30;;
20101;SDS011;10210;52.284;9.892;2022-09-09T04:07:24;3.07;;;1.33;;
20101;SDS011;10210;52.284;9.892;2022-09-09T04:09:52;5.37;;;1.40;;
20101;SDS011;10210;52.284;9.892;2022-09-09T04:12:19;3.80;;;1.50;;
20101;SDS011;10210;52.284;9.892;2022-09-09T04:14:45;7.27;;;1.60;;
20101;SDS011;10210;52.284;9.892;2022-09-09T04:17:11;4.63;;;1.40;;
20101;SDS011;10210;52.284;9.892;2022-09-09T04:19:37;6.50;;;1.50;;
20101;SDS011;10210;52.284;9.892;2022-09-09T04:22:02;5.40;;;1.50;;
20101;SDS011;10210;52.284;9.892;2022-09-09T04:24:29;5.77;;;1.53;;
20101;SDS011;10210;52.284;9.892;2022-09-09T04:26:54;5.33;;;1.50;;
20101;SDS011;10210;52.284;9.892;2022-09-09T04:29:20;5.07;;;1.70;;
20101;SDS011;10210;52.284;9.892;2022-09-09T04:31:46;5.97;;;1.70;;
20101;SDS011;10210;52.284;9.892;2022-09-09T04:34:11;7.60;;;1.80;;
20101;SDS011;10210;52.284;9.892;2022-09-09T04:36:37;7.13;;;1.90;;
20101;SDS011;10210;52.284;9.892;2022-09-09T04:39:05;6.83;;;1.90;;
20101;SDS011;10210;52.284;9.892;2022-09-09T04:41:32;6.53;;;1.90;;
20101;SDS011;10210;52.284;9.892;2022-09-09T04:43:58;7.20;;;1.80;;
20101;SDS011;10210;52.284;9.892;2022-09-09T04:46:24;5.53;;;1.60;;
20101;SDS011;10210;52.284;9.892;2022-09-09T04:48:50;5.37;;;1.50;;
20101;SDS011;10210;52.284;9.892;2022-09-09T04:51:17;5.97;;;1.90;;
20101;SDS011;10210;52.284;9.892;2022-09-09T04:53:43;4.00;;;1.47;;
20101;SDS011;10210;52.284;9.892;2022-09-09T04:56:11;6.93;;;1.80;;
20101;SDS011;10210;52.284;9.892;2022-09-09T04:58:39;6.27;;;1.70;;
20101;SDS011;10210;52.284;9.892;2022-09-09T05:01:11;5.57;;;1.70;;
20101;SDS011;10210;52.284;9.892;2022-09-09T05:03:40;4.73;;;1.47;;
20101;SDS011;10210;52.284;9.892;2022-09-09T05:06:08;7.50;;;2.00;;
20101;SDS011;10210;52.284;9.892;2022-09-09T05:08:39;6.40;;;2.10;;
20101;SDS011;10210;52.284;9.892;2022-09-09T05:11:18;5.20;;;1.70;;
20101;SDS011;10210;52.284;9.892;2022-09-09T05:13:48;3.77;;;1.30;;
20101;SDS011;10210;52.284;9.892;2022-09-09T05:16:15;5.87;;;1.50;;
20101;SDS011;10210;52.284;9.892;2022-09-09T05:18:42;4.60;;;1.40;;
20101;SDS011;10210;52.284;9.892;2022-09-09T05:21:08;8.57;;;1.90;;
20101;SDS011;10210;52.284;9.892;2022-09-09T05:23:36;6.47;;;1.77;;
20101;SDS011;10210;52.284;9.892;2022-09-09T05:26:02;5.27;;;1.70;;
20101;SDS011;10210;52.284;9.892;2022-09-09T05:28:30;6.00;;;1.60;;
20101;SDS011;10210;52.284;9.892;2022-09-09T05:31:03;5.20;;;1.70;;
20101;SDS011;10210;52.284;9.892;2022-09-09T05:33:33;6.80;;;2.00;;
20101;SDS011;10210;52.284;9.892;2022-09-09T05:36:04;4.57;;;1.70;;
20101;SDS011;10210;52.284;9.892;2022-09-09T05:38:33;5.23;;;1.40;;
20101;SDS011;10210;52.284;9.892;2022-09-09T05:41:01;7.60;;;1.67;;
20101;SDS011;10210;52.284;9.892;2022-09-09T05:43:28;4.90;;;1.67;;
20101;SDS011;10210;52.284;9.892;2022-09-09T05:46:01;6.20;;;1.73;;
20101;SDS011;10210;52.284;9.892;2022-09-09T05:48:36;7.43;;;2.17;;
20101;SDS011;10210;52.284;9.892;2022-09-09T05:51:05;7.53;;;1.70;;
20101;SDS011;10210;52.284;9.892;2022-09-09T05:53:35;6.73;;;1.73;;
20101;SDS011;10210;52.284;9.892;2022-09-09T05:56:02;7.27;;;1.80;;
20101;SDS011;10210;52.284;9.892;2022-09-09T05:58:46;6.47;;;1.90;;
20101;SDS011;10210;52.284;9.892;2022-09-09T06:01:14;5.77;;;1.80;;
20101;SDS011;10210;52.284;9.892;2022-09-09T06:03:45;4.53;;;1.60;;
20101;SDS011;10210;52.284;9.892;2022-09-09T06:06:13;7.07;;;2.10;;
20101;SDS011;10210;52.284;9.892;2022-09-09T06:08:52;8.33;;;2.10;;
20101;SDS011;10210;52.284;9.892;2022-09-09T06:11:26;6.03;;;1.80;;
20101;SDS011;10210;52.284;9.892;2022-09-09T06:13:56;9.70;;;2.00;;
20101;SDS011;10210;52.284;9.892;2022-09-09T06:16:23;7.40;;;2.10;;
20101;SDS011;10210;52.284;9.892;2022-09-09T06:18:51;7.13;;;2.00;;
20101;SDS011;10210;52.284;9.892;2022-09-09T06:21:23;7.77;;;2.00;;
20101;SDS011;10210;52.284;9.892;2022-09-09T06:23:51;8.13;;;2.10;;
20101;SDS011;10210;52.284;9.892;2022-09-09T06:26:19;9.37;;;2.40;;
20101;SDS011;10210;52.284;9.892;2022-09-09T06:28:56;10.03;;;2.50;;
20101;SDS011;10210;52.284;9.892;2022-09-09T06:31:24;9.23;;;2.30;;
20101;SDS011;10210;52.284;9.892;2022-09-09T06:33:55;9.10;;;2.30;;
20101;SDS011;10210;52.284;9.892;2022-09-09T06:36:23;10.10;;;2.27;;
20101;SDS011;10210;52.284;9.892;2022-09-09T06:38:58;6.30;;;1.80;;
20101;SDS011;10210;52.284;9.892;2022-09-09T06:41:25;8.53;;;2.10;;
20101;SDS011;10210;52.284;9.892;2022-09-09T06:43:54;6.77;;;2.13;;
20101;SDS011;10210;52.284;9.892;2022-09-09T06:46:24;7.03;;;2.17;;
20101;SDS011;10210;52.284;9.892;2022-09-09T06:48:52;5.73;;;1.80;;
20101;SDS011;10210;52.284;9.892;2022-09-09T06:51:25;6.30;;;1.73;;
20101;SDS011;10210;52.284;9.892;2022-09-09T06:53:55;6.43;;;2.00;;
20101;SDS011;10210;52.284;9.892;2022-09-09T06:56:29;8.93;;;2.20;;
20101;SDS011;10210;52.284;9.892;2022-09-09T06:59:06;5.10;;;1.80;;
20101;SDS011;10210;52.284;9.892;2022-09-09T07:01:41;7.87;;;2.10;;
20101;SDS011;10210;52.284;9.892;2022-09-09T07:04:16;5.80;;;2.17;;
20101;SDS011;10210;52.284;9.892;2022-09-09T07:06:43;9.33;;;2.10;;
20101;SDS011;10210;52.284;9.892;2022-09-09T07:09:11;5.53;;;1.77;;
20101;SDS011;10210;52.284;9.892;2022-09-09T07:11:43;9.43;;;2.00;;
20101;SDS011;10210;52.284;9.892;2022-09-09T07:14:13;5.57;;;1.80;;
20101;SDS011;10210;52.284;9.892;2022-09-09T07:16:43;5.07;;;1.70;;
20101;SDS011;10210;52.284;9.892;2022-09-09T07:19:10;6.00;;;1.90;;
20101;SDS011;10210;52.284;9.892;2022-09-09T07:21:37;9.13;;;2.40;;
20101;SDS011;10210;52.284;9.892;2022-09-09T07:24:05;8.83;;;2.30;;
20101;SDS011;10210;52.284;9.892;2022-09-09T07:26:34;10.47;;;2.20;;
20101;SDS011;10210;52.284;9.892;2022-09-09T07:29:02;7.63;;;2.17;;
20101;SDS011;10210;52.284;9.892;2022-09-09T07:31:32;8.40;;;2.37;;
20101;SDS011;10210;52.284;9.892;2022-09-09T07:34:01;5.87;;;1.83;;
20101;SDS011;10210;52.284;9.892;2022-09-09T07:36:32;10.93;;;2.03;;
20101;SDS011;10210;52.284;9.892;2022-09-09T07:39:03;8.57;;;1.70;;
20101;SDS011;10210;52.284;9.892;2022-09-09T07:41:38;6.23;;;2.03;;
20101;SDS011;10210;52.284;9.892;2022-09-09T07:44:14;8.10;;;1.80;;
20101;SDS011;10210;52.284;9.892;2022-09-09T07:46:43;4.33;;;1.40;;
20101;SDS011;10210;52.284;9.892;2022-09-09T07:49:10;6.10;;;1.63;;
20101;SDS011;10210;52.284;9.892;2022-09-09T07:51:43;5.03;;;1.30;;
20101;SDS011;10210;52.284;9.892;2022-09-09T07:54:14;6.30;;;1.87;;
20101;SDS011;10210;52.284;9.892;2022-09-09T07:56:44;7.33;;;1.37;;
20101;SDS011;10210;52.284;9.892;2022-09-09T07:59:12;3.93;;;1.30;;
20101;SDS011;10210;52.284;9.892;2022-09-09T08:01:45;5.00;;;1.40;;
20101;SDS011;10210;52.284;9.892;2022-09-09T08:04:21;7.60;;;1.57;;
20101;SDS011;10210;52.284;9.892;2022-09-09T08:06:50;6.97;;;1.43;;
20101;SDS011;10210;52.284;9.892;2022-09-09T08:09:19;6.30;;;1.43;;
20101;SDS011;10210;52.284;9.892;2022-09-09T08:11:45;6.10;;;1.30;;
20101;SDS011;10210;52.284;9.892;2022-09-09T08:14:12;5.53;;;1.43;;
20101;SDS011;10210;52.284;9.892;2022-09-09T08:16:40;7.50;;;1.50;;
20101;SDS011;10210;52.284;9.892;2022-09-09T08:19:08;5.90;;;1.60;;
20101;SDS011;10210;52.284;9.892;2022-09-09T08:21:35;6.63;;;1.40;;
20101;SDS011;10210;52.284;9.892;2022-09-09T08:24:05;4.97;;;1.30;;
20101;SDS011;10210;52.284;9.892;2022-09-09T08:26:37;7.33;;;1.40;;
20101;SDS011;10210;52.284;9.892;2022-09-09T08:29:06;6.43;;;1.50;;
20101;SDS011;10210;52.284;9.892;2022-09-09T08:31:39;5.93;;;1.40;;
20101;SDS011;10210;52.284;9.892;2022-09-09T08:34:09;6.57;;;1.77;;
20101;SDS011;10210;52.284;9.892;2022-09-09T08:36:42;7.10;;;1.60;;
20101;SDS011;10210;52.284;9.892;2022-09-09T08:39:10;5.53;;;1.50;;
20101;SDS011;10210;52.284;9.892;2022-09-09T08:55:58;3.13;;;1.10;;
20101;SDS011;10210;52.284;9.892;2022-09-09T08:58:38;6.43;;;1.60;;
20101;SDS011;10210;52.284;9.892;2022-09-09T09:10:25;5.03;;;1.20;;
20101;SDS011;10210;52.284;9.892;2022-09-09T09:13:03;8.27;;;1.73;;
20101;SDS011;10210;52.284;9.892;2022-09-09T09:15:43;4.20;;;1.20;;
20101;SDS011;10210;52.284;9.892;2022-09-09T09:18:15;4.83;;;1.30;;
20101;SDS011;10210;52.284;9.892;2022-09-09T09:20:45;6.83;;;1.40;;
20101;SDS011;10210;52.284;9.892;2022-09-09T09:23:22;6.47;;;1.40;;
20101;SDS011;10210;52.284;9.892;2022-09-09T09:25:52;6.37;;;1.60;;
20101;SDS011;10210;52.284;9.892;2022-09-09T09:28:26;7.77;;;1.60;;
20101;SDS011;10210;52.284;9.892;2022-09-09T09:30:58;7.67;;;1.67;;
20101;SDS011;10210;52.284;9.892;2022-09-09T09:36:09;5.00;;;1.40;;
20101;SDS011;10210;52.284;9.892;2022-09-09T09:38:35;6.63;;;1.50;;
20101;SDS011;10210;52.284;9.892;2022-09-09T09:41:02;7.67;;;1.60;;
20101;SDS011;10210;52.284;9.892;2022-09-09T09:43:35;11.97;;;1.73;;
20101;SDS011;10210;52.284;9.892;2022-09-09T09:46:04;8.27;;;1.90;;
20101;SDS011;10210;52.284;9.892;2022-09-09T09:48:44;6.80;;;1.50;;
20101;SDS011;10210;52.284;9.892;2022-09-09T09:51:21;6.73;;;1.60;;
20101;SDS011;10210;52.284;9.892;2022-09-09T09:53:49;7.97;;;1.50;;
20101;SDS011;10210;52.284;9.892;2022-09-09T09:56:17;9.47;;;1.77;;
20101;SDS011;10210;52.284;9.892;2022-09-09T09:58:55;5.20;;;1.27;;
20101;SDS011;10210;52.284;9.892;2022-09-09T10:01:27;6.73;;;1.60;;
20101;SDS011;10210;52.284;9.892;2022-09-09T10:03:59;7.90;;;1.63;;
20101;SDS011;10210;52.284;9.892;2022-09-09T10:06:40;8.23;;;1.80;;
20101;SDS011;10210;52.284;9.892;2022-09-09T10:11:56;6.37;;;1.50;;
20101;SDS011;10210;52.284;9.892;2022-09-09T10:15:00;7.30;;;1.60;;
20101;SDS011;10210;52.284;9.892;2022-09-09T10:23:53;7.93;;;1.50;;
20101;SDS011;10210;52.284;9.892;2022-09-09T10:38:15;8.10;;;1.70;;
20101;SDS011;10210;52.284;9.892;2022-09-09T10:46:14;9.23;;;1.93;;
20101;SDS011;10210;52.284;9.892;2022-09-09T10:54:56;7.27;;;1.87;;
20101;SDS011;10210;52.284;9.892;2022-09-09T11:00:18;10.77;;;2.40;;
20101;SDS011;10210;52.284;9.892;2022-09-09T11:02:51;10.63;;;2.10;;
20101;SDS011;10210;52.284;9.892;2022-09-09T11:05:35;10.33;;;1.70;;
20101;SDS011;10210;52.284;9.892;2022-09-09T11:08:10;5.10;;;1.30;;
20101;SDS011;10210;52.284;9.892;2022-09-09T11:11:03;7.20;;;1.73;;
20101;SDS011;10210;52.284;9.892;2022-09-09T11:19:34;5.63;;;1.40;;
20101;SDS011;10210;52.284;9.892;2022-09-09T11:24:43;5.53;;;1.50;;
20101;SDS011;10210;52.284;9.892;2022-09-09T11:27:37;4.63;;;1.43;;
20101;SDS011;10210;52.284;9.892;2022-09-09T11:30:19;5.47;;;1.37;;
20101;SDS011;10210;52.284;9.892;2022-09-09T11:35:48;3.43;;;1.30;;
20101;SDS011;10210;52.284;9.892;2022-09-09T11:38:52;6.53;;;1.70;;
20101;SDS011;10210;52.284;9.892;2022-09-09T11:41:53;4.13;;;1.00;;
20101;SDS011;10210;52.284;9.892;2022-09-09T11:44:21;4.63;;;1.40;;
20101;SDS011;10210;52.284;9.892;2022-09-09T11:46:59;4.10;;;0.93;;
20101;SDS011;10210;52.284;9.892;2022-09-09T11:49:26;5.57;;;1.20;;
20101;SDS011;10210;52.284;9.892;2022-09-09T11:52:12;5.23;;;1.20;;
20101;SDS011;10210;52.284;9.892;2022-09-09T11:54:51;3.00;;;0.83;;
20101;SDS011;10210;52.284;9.892;2022-09-09T11:57:24;6.47;;;1.27;;
20101;SDS011;10210;52.284;9.892;2022-09-09T12:00:00;5.50;;;1.20;;
20101;SDS011;10210;52.284;9.892;2022-09-09T12:02:28;4.20;;;1.00;;
20101;SDS011;10210;52.284;9.892;2022-09-09T12:05:00;3.80;;;0.90;;
20101;SDS011;10210;52.284;9.892;2022-09-09T12:07:49;3.50;;;1.07;;
20101;SDS011;10210;52.284;9.892;2022-09-09T12:10:29;6.40;;;1.30;;
20101;SDS011;10210;52.284;9.892;2022-09-09T12:15:49;4.43;;;1.10;;
20101;SDS011;10210;52.284;9.892;2022-09-09T12:18:25;1.90;;;0.87;;
20101;SDS011;10210;52.284;9.892;2022-09-09T12:24:19;3.43;;;1.00;;
20101;SDS011;10210;52.284;9.892;2022-09-09T12:27:20;2.43;;;0.77;;
20101;SDS011;10210;52.284;9.892;2022-09-09T12:30:04;3.07;;;1.03;;
20101;SDS011;10210;52.284;9.892;2022-09-09T12:32:36;4.20;;;1.20;;
20101;SDS011;10210;52.284;9.892;2022-09-09T12:37:53;2.13;;;0.80;;
20101;SDS011;10210;52.284;9.892;2022-09-09T12:40:31;3.90;;;0.90;;
20101;SDS011;10210;52.284;9.892;2022-09-09T12:43:00;5.30;;;1.70;;
20101;SDS011;10210;52.284;9.892;2022-09-09T12:45:41;4.87;;;1.33;;
20101;SDS011;10210;52.284;9.892;2022-09-09T12:48:08;4.30;;;1.03;;
20101;SDS011;10210;52.284;9.892;2022-09-09T12:50:37;4.53;;;1.07;;
20101;SDS011;10210;52.284;9.892;2022-09-09T12:53:12;2.57;;;0.73;;
20101;SDS011;10210;52.284;9.892;2022-09-09T12:56:00;2.23;;;0.90;;
20101;SDS011;10210;52.284;9.892;2022-09-09T12:58:32;5.53;;;1.33;;
20101;SDS011;10210;52.284;9.892;2022-09-09T13:00:59;3.97;;;1.27;;
20101;SDS011;10210;52.284;9.892;2022-09-09T13:03:29;4.17;;;1.20;;
20101;SDS011;10210;52.284;9.892;2022-09-09T13:05:58;5.03;;;1.20;;
20101;SDS011;10210;52.284;9.892;2022-09-09T13:08:37;4.37;;;1.13;;
20101;SDS011;10210;52.284;9.892;2022-09-09T13:11:04;3.73;;;0.97;;
20101;SDS011;10210;52.284;9.892;2022-09-09T13:13:39;3.23;;;0.83;;
20101;SDS011;10210;52.284;9.892;2022-09-09T13:16:18;3.83;;;1.20;;
20101;SDS011;10210;52.284;9.892;2022-09-09T13:18:51;5.37;;;1.50;;
20101;SDS011;10210;52.284;9.892;2022-09-09T13:21:18;3.93;;;1.37;;
20101;SDS011;10210;52.284;9.892;2022-09-09T13:23:48;4.53;;;1.00;;
20101;SDS011;10210;52.284;9.892;2022-09-09T13:26:21;6.20;;;1.27;;
20101;SDS011;10210;52.284;9.892;2022-09-09T13:28:52;5.67;;;1.40;;
20101;SDS011;10210;52.284;9.892;2022-09-09T13:31:20;6.90;;;1.50;;
20101;SDS011;10210;52.284;9.892;2022-09-09T13:33:55;2.83;;;1.03;;
20101;SDS011;10210;52.284;9.892;2022-09-09T13:36:27;4.03;;;1.00;;
20101;SDS011;10210;52.284;9.892;2022-09-09T13:39:00;3.70;;;1.10;;
20101;SDS011;10210;52.284;9.892;2022-09-09T13:41:30;5.67;;;1.30;;
20101;SDS011;10210;52.284;9.892;2022-09-09T13:47:17;4.60;;;1.00;;
20101;SDS011;10210;52.284;9.892;2022-09-09T13:49:45;4.10;;;1.00;;
20101;SDS011;10210;52.284;9.892;2022-09-09T13:52:12;5.50;;;1.40;;
20101;SDS011;10210;52.284;9.892;2022-09-09T13:54:42;5.23;;;1.23;;
20101;SDS011;10210;52.284;9.892;2022-09-09T13:57:17;4.13;;;1.30;;
20101;SDS011;10210;52.284;9.892;2022-09-09T13:59:48;4.70;;;1.50;;
20101;SDS011;10210;52.284;9.892;2022-09-09T14:02:15;4.53;;;1.13;;
20101;SDS011;10210;52.284;9.892;2022-09-09T14:04:44;5.23;;;1.60;;
20101;SDS011;10210;52.284;9.892;2022-09-09T14:07:13;4.93;;;1.10;;
20101;SDS011;10210;52.284;9.892;2022-09-09T14:09:42;3.90;;;1.20;;
20101;SDS011;10210;52.284;9.892;2022-09-09T14:12:10;4.47;;;1.00;;
20101;SDS011;10210;52.284;9.892;2022-09-09T14:14:36;4.20;;;1.03;;
20101;SDS011;10210;52.284;9.892;2022-09-09T14:17:03;5.63;;;1.20;;
20101;SDS011;10210;52.284;9.892;2022-09-09T14:19:29;3.37;;;0.80;;
20101;SDS011;10210;52.284;9.892;2022-09-09T14:21:56;3.33;;;1.20;;
20101;SDS011;10210;52.284;9.892;2022-09-09T14:24:23;3.67;;;1.00;;
20101;SDS011;10210;52.284;9.892;2022-09-09T14:26:48;5.20;;;1.03;;
20101;SDS011;10210;52.284;9.892;2022-09-09T14:29:14;4.00;;;0.97;;
20101;SDS011;10210;52.284;9.892;2022-09-09T14:31:40;6.53;;;1.30;;
20101;SDS011;10210;52.284;9.892;2022-09-09T14:34:06;5.33;;;1.33;;
20101;SDS011;10210;52.284;9.892;2022-09-09T14:36:31;5.73;;;1.10;;
20101;SDS011;10210;52.284;9.892;2022-09-09T14:38:58;3.80;;;1.10;;
20101;SDS011;10210;52.284;9.892;2022-09-09T14:41:24;5.60;;;1.30;;
20101;SDS011;10210;52.284;9.892;2022-09-09T14:43:50;5.80;;;1.20;;
20101;SDS011;10210;52.284;9.892;2022-09-09T14:46:17;6.20;;;1.10;;
20101;SDS011;10210;52.284;9.892;2022-09-09T14:48:44;5.37;;;1.00;;
20101;SDS011;10210;52.284;9.892;2022-09-09T14:51:23;4.20;;;1.10;;
20101;SDS011;10210;52.284;9.892;2022-09-09T14:53:50;4.73;;;1.20;;
20101;SDS011;10210;52.284;9.892;2022-09-09T14:56:18;4.57;;;1.10;;
20101;SDS011;10210;52.284;9.892;2022-09-09T14:58:48;3.60;;;1.17;;
20101;SDS011;10210;52.284;9.892;2022-09-09T15:01:16;5.17;;;1.40;;
20101;SDS011;10210;52.284;9.892;2022-09-09T15:03:52;2.63;;;0.90;;
20101;SDS011;10210;52.284;9.892;2022-09-09T15:06:20;4.27;;;0.93;;
20101;SDS011;10210;52.284;9.892;2022-09-09T15:08:49;5.27;;;1.07;;
20101;SDS011;10210;52.284;9.892;2022-09-09T15:11:17;5.10;;;1.17;;
20101;SDS011;10210;52.284;9.892;2022-09-09T15:13:43;4.27;;;1.20;;
20101;SDS011;10210;52.284;9.892;2022-09-09T15:18:37;5.70;;;1.70;;
20101;SDS011;10210;52.284;9.892;2022-09-09T15:21:08;3.93;;;1.30;;
20101;SDS011;10210;52.284;9.892;2022-09-09T15:23:35;5.03;;;1.30;;
20101;SDS011;10210;52.284;9.892;2022-09-09T15:26:02;5.37;;;1.40;;
20101;SDS011;10210;52.284;9.892;2022-09-09T15:28:31;6.03;;;1.40;;
20101;SDS011;10210;52.284;9.892;2022-09-09T15:31:04;7.37;;;1.40;;
20101;SDS011;10210;52.284;9.892;2022-09-09T15:33:34;7.80;;;1.47;;
20101;SDS011;10210;52.284;9.892;2022-09-09T15:36:11;4.20;;;1.13;;
20101;SDS011;10210;52.284;9.892;2022-09-09T15:38:43;3.13;;;0.87;;
20101;SDS011;10210;52.284;9.892;2022-09-09T15:41:10;4.40;;;1.00;;
20101;SDS011;10210;52.284;9.892;2022-09-09T15:43:38;4.43;;;1.10;;
20101;SDS011;10210;52.284;9.892;2022-09-09T15:48:42;6.07;;;1.10;;
20101;SDS011;10210;52.284;9.892;2022-09-09T15:51:11;5.77;;;0.90;;
20101;SDS011;10210;52.284;9.892;2022-09-09T15:53:37;6.20;;;1.03;;
20101;SDS011;10210;52.284;9.892;2022-09-09T15:56:04;6.67;;;1.20;;
20101;SDS011;10210;52.284;9.892;2022-09-09T15:58:32;5.13;;;1.20;;
20101;SDS011;10210;52.284;9.892;2022-09-09T16:01:04;2.63;;;0.90;;
20101;SDS011;10210;52.284;9.892;2022-09-09T16:03:40;3.37;;;1.20;;
20101;SDS011;10210;52.284;9.892;2022-09-09T16:06:07;4.70;;;1.40;;
20101;SDS011;10210;52.284;9.892;2022-09-09T16:08:39;4.20;;;1.43;;
20101;SDS011;10210;52.284;9.892;2022-09-09T16:11:15;4.60;;;0.90;;
20101;SDS011;10210;52.284;9.892;2022-09-09T16:13:45;4.60;;;0.93;;
20101;SDS011;10210;52.284;9.892;2022-09-09T16:16:13;5.47;;;1.20;;
20101;SDS011;10210;52.284;9.892;2022-09-09T16:18:43;5.60;;;1.10;;
20101;SDS011;10210;52.284;9.892;2022-09-09T16:21:13;4.53;;;1.30;;
20101;SDS011;10210;52.284;9.892;2022-09-09T16:23:46;4.30;;;1.20;;
20101;SDS011;10210;52.284;9.892;2022-09-09T16:26:14;5.00;;;1.20;;
20101;SDS011;10210;52.284;9.892;2022-09-09T16:28:41;4.80;;;1.40;;
20101;SDS011;10210;52.284;9.892;2022-09-09T16:31:08;4.83;;;1.60;;
20101;SDS011;10210;52.284;9.892;2022-09-09T16:33:38;4.07;;;1.30;;
20101;SDS011;10210;52.284;9.892;2022-09-09T16:36:06;6.23;;;1.70;;
20101;SDS011;10210;52.284;9.892;2022-09-09T16:38:35;4.70;;;1.33;;
20101;SDS011;10210;52.284;9.892;2022-09-09T16:41:02;3.77;;;1.10;;
20101;SDS011;10210;52.284;9.892;2022-09-09T16:43:31;6.00;;;1.20;;
20101;SDS011;10210;52.284;9.892;2022-09-09T16:45:58;5.50;;;1.20;;
20101;SDS011;10210;52.284;9.892;2022-09-09T16:48:30;5.47;;;1.17;;
20101;SDS011;10210;52.284;9.892;2022-09-09T16:51:05;6.27;;;1.50;;
20101;SDS011;10210;52.284;9.892;2022-09-09T16:53:37;4.33;;;1.10;;
20101;SDS011;10210;52.284;9.892;2022-09-09T16:56:12;2.97;;;1.10;;
20101;SDS011;10210;52.284;9.892;2022-09-09T16:58:44;5.73;;;1.40;;
20101;SDS011;10210;52.284;9.892;2022-09-09T17:01:24;4.63;;;1.30;;
20101;SDS011;10210;52.284;9.892;2022-09-09T17:03:56;5.50;;;1.50;;
20101;SDS011;10210;52.284;9.892;2022-09-09T17:06:28;6.37;;;1.43;;
20101;SDS011;10210;52.284;9.892;2022-09-09T17:08:59;4.63;;;1.20;;
20101;SDS011;10210;52.284;9.892;2022-09-09T17:11:28;6.50;;;1.37;;
20101;SDS011;10210;52.284;9.892;2022-09-09T17:13:55;7.03;;;1.53;;
20101;SDS011;10210;52.284;9.892;2022-09-09T17:16:23;5.67;;;1.50;;
20101;SDS011;10210;52.284;9.892;2022-09-09T17:18:52;5.07;;;1.40;;
20101;SDS011;10210;52.284;9.892;2022-09-09T17:21:20;4.50;;;1.30;;
20101;SDS011;10210;52.284;9.892;2022-09-09T17:23:50;5.37;;;1.40;;